Airfield :
LOGIN :

Register | Disclaimer

   EN    FR    IT 

 










Legend :    VFR   Marginal VFR   IFR   Intensive IFR   Very Intensive IFR
Visi :
Ceiling :
>= 8 km
>= 3000ft
5 to 8 km
1000 to 3000 ft
1500m to 5 km
500 to 1000 ft
800 to 1500m
200 to 500 ft
< 800m
< 200 ft
Symbols :   Thunderstorms  Fog  Heavy snow  Heavy precipitations  Wind > 20 kt
SIGMETs :     Misc.  Thunderstorms  Icing  Turbulence  Mountain Waves  Volcanic Ashes







- Airport Elevation : 72 ft
- IATA code : UDE


EHVK - Volkel Airbase

CURRENT METAR :
  • 250925Z AUTO 13008KT 090V160 9999 BKN190 OVC370 30/18 Q1016 BLU 13007KT CAVOK BECMG 16007KT

EXPIRED METARs :
  • 250903Z AUTO 13008KT 070V160 9999 BKN190/// BKN390/// 29/19 Q1016 BLU 13007KT CAVOK BECMG 16007KT
  • 250855Z AUTO 13008KT 080V170 9999 NCD 28/18 Q1016 BLU 13007KT CAVOK BECMG 16007KT
  • 250847Z AUTO 12008KT 080V170 9999 NCD 28/18 Q1016 BLU 13007KT CAVOK BECMG 16007KT
  • 250825Z AUTO 13008KT 090V160 9999 OVC160 27/18 Q1016 BLU 13007KT CAVOK BECMG 16007KT
  • 250755Z AUTO 11006KT 080V160 9999 OVC160 26/18 Q1016 BLU 12007KT CAVOK BECMG 15007KT
  • 250725Z AUTO 12007KT 080V150 9999 OVC160 25/17 Q1016 BLU 12007KT CAVOK BECMG 15007KT
  • 250655Z AUTO 11006KT 070V150 9999 OVC150 25/18 Q1016 BLU 10006KT CAVOK BECMG 15006KT
  • 250625Z AUTO 10006KT 070V140 9999 OVC160 24/17 Q1016 BLU 10006KT CAVOK BECMG 15006KT

TAF TAF EHVK
Valid from the 25 at 09:00 until the 25 at 21:00 UTC


250837Z 2509/2521 14007KT CAVOK
BECMG 2509/2512 17008G18KT
BECMG 2515/2518 27007KT
No reported NOTAMs for that airfield.



MET'MAP, your aeronautical weather chart ! - Copyright ORBIFLY December 2007 - Disclaimer

ORBIFLY MET'MAP TEAM :

Programming & Development : Alexandra Zaïnal
Concept & Development : Baudouin d'Aumeries
Co-Development & Prog : Marc-Olivier Méhu
Technical & hardware support : Manuel Goepfert

Contact : metmap@orbifly.com




SOURCES & CREDITS :

   NOAA